Time;durP1;ratioP1;P1;durP2;ratioP2;P2;SDS_P1;SDS_P2;PMS_P1;PMS_P2;Temp;Humidity;BMP_temperature;BMP_pressure;BME280_temperature;BME280_humidity;BME280_pressure;Samples;Min_cycle;Max_cycle;Signal;HPM_P1;HPM_P2
2023/06/25 00:01:56;;;;;;;14.30;8.93;;;17.70;99.90;;;;;;5008060;28;20030;-57
2023/06/25 00:04:21;;;;;;;12.77;8.77;;;17.70;99.90;;;;;;5007846;28;20026;-57
2023/06/25 00:06:47;;;;;;;9.15;8.13;;;17.80;99.90;;;;;;5007443;28;20026;-56
2023/06/25 00:09:13;;;;;;;10.35;8.57;;;17.80;99.90;;;;;;5008221;28;20022;-56
2023/06/25 00:11:38;;;;;;;10.82;8.50;;;17.80;99.90;;;;;;5007949;28;20498;-56
2023/06/25 00:14:04;;;;;;;12.27;8.73;;;17.90;99.90;;;;;;5007733;28;20047;-56
2023/06/25 00:16:29;;;;;;;11.52;8.75;;;17.80;99.90;;;;;;5007176;28;20210;-56
2023/06/25 00:18:56;;;;;;;11.18;8.60;;;17.80;99.90;;;;;;5007267;28;20576;-56
2023/06/25 00:21:22;;;;;;;10.85;8.60;;;17.80;99.90;;;;;;4984643;28;20057;-57
2023/06/25 00:23:47;;;;;;;10.52;8.45;;;17.70;99.90;;;;;;5006694;28;20026;-57
2023/06/25 00:26:13;;;;;;;10.57;8.75;;;17.70;99.90;;;;;;5007213;28;20030;-56
2023/06/25 00:28:38;;;;;;;16.40;9.20;;;17.70;99.90;;;;;;5007479;28;20030;-56
2023/06/25 00:31:05;;;;;;;11.45;8.70;;;17.70;99.90;;;;;;5007278;28;20030;-57
2023/06/25 00:33:32;;;;;;;10.25;8.43;;;17.70;99.90;;;;;;5007234;28;20402;-56
2023/06/25 00:35:57;;;;;;;10.32;8.75;;;17.70;99.90;;;;;;5007386;28;20018;-56
2023/06/25 00:38:23;;;;;;;12.00;9.38;;;17.60;99.90;;;;;;5007389;28;20026;-56
2023/06/25 00:40:50;;;;;;;13.57;9.02;;;17.60;99.90;;;;;;5007423;28;20029;-56
2023/06/25 00:43:16;;;;;;;11.60;9.23;;;17.60;99.90;;;;;;5007277;28;20079;-57
2023/06/25 00:45:44;;;;;;;10.93;8.77;;;17.60;99.90;;;;;;5006993;28;20026;-56
2023/06/25 00:48:11;;;;;;;10.32;9.02;;;17.50;99.90;;;;;;5007195;28;20045;-56
2023/06/25 00:50:36;;;;;;;11.27;8.77;;;17.50;99.90;;;;;;5006732;28;20438;-56
2023/06/25 00:53:02;;;;;;;8.73;7.80;;;17.40;99.90;;;;;;5006773;28;20026;-57
2023/06/25 00:55:28;;;;;;;8.20;7.38;;;17.40;99.90;;;;;;5006695;28;20065;-56
2023/06/25 00:57:55;;;;;;;12.75;9.00;;;17.50;99.90;;;;;;4988878;28;20025;-56
2023/06/25 01:00:24;;;;;;;9.60;8.38;;;17.50;99.90;;;;;;5006368;28;20045;-56
2023/06/25 01:03:04;;;;;;;9.55;8.07;;;17.50;99.90;;;;;;4988929;28;20022;-57
2023/06/25 01:05:57;;;;;;;9.75;7.80;;;17.40;99.90;;;;;;4999930;28;20061;-57
2023/06/25 01:08:28;;;;;;;12.88;9.18;;;17.30;99.90;;;;;;4976481;28;20069;-57
2023/06/25 01:10:55;;;;;;;11.32;9.35;;;17.30;99.90;;;;;;4987329;28;20491;-56
2023/06/25 01:13:21;;;;;;;10.23;9.10;;;17.20;99.90;;;;;;4987180;28;20058;-56
2023/06/25 01:15:47;;;;;;;11.85;8.63;;;17.20;99.90;;;;;;4986900;28;20597;-57
2023/06/25 01:18:13;;;;;;;10.43;8.65;;;17.20;99.90;;;;;;4987209;28;20026;-56
2023/06/25 01:20:40;;;;;;;12.38;9.63;;;17.10;99.90;;;;;;4987088;28;20479;-56
2023/06/25 01:23:07;;;;;;;11.18;9.07;;;17.10;99.90;;;;;;4997479;28;20033;-56
2023/06/25 01:25:36;;;;;;;12.48;9.30;;;17.00;99.90;;;;;;5006559;28;20498;-56
2023/06/25 01:28:02;;;;;;;9.88;8.75;;;17.00;99.90;;;;;;5006008;28;20267;-57
2023/06/25 01:30:31;;;;;;;13.35;9.43;;;17.00;99.90;;;;;;5006696;28;20033;-56
2023/06/25 01:32:57;;;;;;;9.98;8.68;;;17.00;99.90;;;;;;4989455;28;20026;-56
2023/06/25 01:35:24;;;;;;;10.48;8.90;;;16.90;99.90;;;;;;5009231;28;20548;-57
2023/06/25 01:37:49;;;;;;;11.60;9.23;;;16.90;99.90;;;;;;5009833;28;20037;-56
2023/06/25 01:40:16;;;;;;;11.13;9.68;;;16.90;99.90;;;;;;5010005;28;20026;-56
2023/06/25 01:42:42;;;;;;;13.43;10.57;;;16.90;99.90;;;;;;5010163;28;20030;-56
2023/06/25 01:45:09;;;;;;;10.98;9.13;;;16.90;99.90;;;;;;4992320;28;20030;-57
2023/06/25 01:47:36;;;;;;;11.10;9.25;;;16.90;99.90;;;;;;5009495;28;20038;-56
2023/06/25 01:50:02;;;;;;;13.02;9.93;;;16.90;99.90;;;;;;5009754;28;20067;-57
2023/06/25 01:52:28;;;;;;;13.32;10.82;;;16.90;99.90;;;;;;5009603;28;20153;-57
2023/06/25 01:54:54;;;;;;;14.75;10.52;;;16.90;99.90;;;;;;5010021;28;20028;-56
2023/06/25 01:57:20;;;;;;;15.32;10.60;;;17.00;99.90;;;;;;5009384;28;20018;-57
2023/06/25 01:59:45;;;;;;;10.82;9.70;;;17.10;99.90;;;;;;5009612;28;20061;-56
2023/06/25 02:02:11;;;;;;;12.30;9.48;;;17.10;99.90;;;;;;5009685;28;20040;-56
2023/06/25 02:04:36;;;;;;;10.60;9.38;;;17.10;99.90;;;;;;5009808;28;20071;-57
2023/06/25 02:07:03;;;;;;;12.07;9.85;;;17.10;99.90;;;;;;4999114;28;20026;-57
2023/06/25 02:09:28;;;;;;;11.95;9.15;;;17.00;99.90;;;;;;4990122;28;20029;-56
2023/06/25 02:11:54;;;;;;;10.15;9.10;;;17.00;99.90;;;;;;4990019;28;20038;-56
2023/06/25 02:14:19;;;;;;;11.10;9.45;;;17.00;99.90;;;;;;4990189;28;20030;-57
2023/06/25 02:16:46;;;;;;;11.50;9.57;;;17.00;99.90;;;;;;4989922;28;20034;-56
2023/06/25 02:19:11;;;;;;;13.88;9.82;;;16.90;99.90;;;;;;4989941;28;20088;-63
2023/06/25 02:21:37;;;;;;;11.45;9.45;;;16.90;99.90;;;;;;4972503;28;20058;-57
2023/06/25 02:24:02;;;;;;;11.60;9.40;;;16.90;99.90;;;;;;4989833;28;20030;-57
2023/06/25 02:26:29;;;;;;;11.68;9.60;;;16.90;99.90;;;;;;4989408;28;20378;-56
2023/06/25 02:28:55;;;;;;;14.35;10.52;;;16.80;99.90;;;;;;4972390;28;20431;-57
2023/06/25 02:31:20;;;;;;;10.85;9.45;;;16.80;99.90;;;;;;4989632;28;20069;-55
2023/06/25 02:33:46;;;;;;;14.40;10.10;;;16.70;99.90;;;;;;4989474;28;20041;-56
2023/06/25 02:36:12;;;;;;;11.27;9.60;;;16.70;99.90;;;;;;4989248;28;20417;-57
2023/06/25 02:38:37;;;;;;;12.23;10.27;;;16.70;99.90;;;;;;4989763;28;20023;-57
2023/06/25 02:41:03;;;;;;;11.13;9.95;;;16.70;99.90;;;;;;4989177;28;20022;-56
2023/06/25 02:43:28;;;;;;;11.27;9.55;;;16.70;99.90;;;;;;4989121;28;20031;-57
2023/06/25 02:45:54;;;;;;;14.38;10.05;;;16.60;99.90;;;;;;4988666;28;20083;-56
2023/06/25 02:48:19;;;;;;;12.75;10.13;;;16.60;99.90;;;;;;4989368;28;20035;-57
2023/06/25 02:50:45;;;;;;;14.90;10.13;;;16.60;99.90;;;;;;4989319;28;20112;-57
2023/06/25 02:53:11;;;;;;;12.10;10.32;;;16.60;99.90;;;;;;4989198;28;20042;-56
2023/06/25 02:55:37;;;;;;;13.00;10.60;;;16.60;99.90;;;;;;4971608;28;20022;-56
2023/06/25 02:58:02;;;;;;;13.50;9.95;;;16.70;99.90;;;;;;4988932;28;20023;-57
2023/06/25 03:00:28;;;;;;;12.55;9.45;;;16.60;99.90;;;;;;4989195;28;20493;-56
2023/06/25 03:02:53;;;;;;;11.02;9.57;;;16.60;99.90;;;;;;4988673;28;20030;-56
2023/06/25 03:05:19;;;;;;;11.43;9.65;;;16.60;99.90;;;;;;4988973;28;20554;-57
2023/06/25 03:07:58;;;;;;;13.02;10.60;;;16.60;99.90;;;;;;4988341;28;20030;-57
2023/06/25 03:10:26;;;;;;;13.68;10.80;;;16.60;99.90;;;;;;4987406;28;20023;-57
2023/06/25 03:12:52;;;;;;;12.48;10.05;;;16.70;99.90;;;;;;4967094;28;20445;-56
2023/06/25 03:15:17;;;;;;;11.98;10.40;;;16.70;99.90;;;;;;4988684;28;20019;-56
2023/06/25 03:17:44;;;;;;;13.93;10.05;;;16.70;99.90;;;;;;4988679;28;20068;-56
2023/06/25 03:20:10;;;;;;;14.52;10.40;;;16.80;99.90;;;;;;4988846;28;20296;-56
2023/06/25 03:22:36;;;;;;;12.65;9.77;;;16.90;99.90;;;;;;4985507;28;20027;-56
2023/06/25 03:25:03;;;;;;;13.23;10.18;;;16.90;99.90;;;;;;4977763;28;20080;-56
2023/06/25 03:27:29;;;;;;;14.18;9.30;;;17.00;99.90;;;;;;4978102;28;20037;-56
2023/06/25 03:29:55;;;;;;;9.82;8.70;;;17.00;99.90;;;;;;4971800;28;20042;-57
2023/06/25 03:32:21;;;;;;;11.77;10.10;;;17.00;99.90;;;;;;5035708;28;20031;-56
2023/06/25 03:34:46;;;;;;;9.85;8.85;;;17.10;99.90;;;;;;4988620;28;20026;-56
2023/06/25 03:37:12;;;;;;;11.15;8.77;;;17.10;99.90;;;;;;5090811;28;20023;-56
2023/06/25 03:39:37;;;;;;;11.82;9.73;;;17.20;99.90;;;;;;5090627;28;20173;-56
2023/06/25 03:42:03;;;;;;;10.55;9.45;;;17.30;99.90;;;;;;5090811;28;20444;-56
2023/06/25 03:44:28;;;;;;;10.38;8.60;;;17.30;99.90;;;;;;5090789;28;20613;-55
2023/06/25 03:46:54;;;;;;;11.32;9.20;;;17.30;99.90;;;;;;5090301;28;20024;-56
2023/06/25 03:49:19;;;;;;;10.82;9.30;;;17.40;99.90;;;;;;5072482;28;20060;-56
2023/06/25 03:51:45;;;;;;;12.35;8.90;;;17.40;99.90;;;;;;5090372;28;20107;-56
2023/06/25 03:54:10;;;;;;;13.07;9.40;;;17.50;99.90;;;;;;5072662;28;20028;-56
2023/06/25 03:56:36;;;;;;;10.63;9.15;;;17.50;99.90;;;;;;5089495;28;20024;-56
2023/06/25 03:59:01;;;;;;;10.13;8.98;;;17.50;99.90;;;;;;5090128;28;20024;-56
2023/06/25 04:01:27;;;;;;;12.25;9.23;;;17.60;99.90;;;;;;5090299;28;20137;-56
2023/06/25 04:03:52;;;;;;;9.50;8.45;;;17.60;99.90;;;;;;5072273;28;20099;-56
2023/06/25 04:06:18;;;;;;;10.00;8.73;;;17.70;99.90;;;;;;5071731;28;20336;-56
2023/06/25 04:08:43;;;;;;;10.48;8.45;;;17.70;99.90;;;;;;5072280;28;20031;-56
2023/06/25 04:11:09;;;;;;;11.32;8.73;;;17.80;99.90;;;;;;5090330;28;20474;-56
2023/06/25 04:13:34;;;;;;;10.02;8.80;;;17.80;99.90;;;;;;5090186;28;20024;-56
2023/06/25 04:16:00;;;;;;;10.18;8.50;;;17.80;99.90;;;;;;5089807;28;20032;-56
2023/06/25 04:18:25;;;;;;;9.57;8.40;;;17.80;99.90;;;;;;5090169;28;20024;-56
2023/06/25 04:20:51;;;;;;;11.10;8.77;;;17.90;99.90;;;;;;5090374;28;20400;-56
2023/06/25 04:23:17;;;;;;;12.85;9.27;;;17.90;99.90;;;;;;5090042;28;20061;-56
2023/06/25 04:25:43;;;;;;;11.73;8.43;;;17.90;99.90;;;;;;5089960;28;20024;-56
2023/06/25 04:28:15;;;;;;;11.10;8.80;;;18.00;99.90;;;;;;5089849;28;20024;-56
2023/06/25 04:30:41;;;;;;;10.50;8.93;;;18.00;99.90;;;;;;5090027;28;20040;-56
2023/06/25 04:33:07;;;;;;;10.32;9.20;;;18.00;99.90;;;;;;5089895;28;20066;-56
2023/06/25 04:35:33;;;;;;;13.65;8.68;;;18.00;99.90;;;;;;5089620;28;20020;-56
2023/06/25 04:37:59;;;;;;;10.20;8.80;;;18.00;99.90;;;;;;5090068;28;20286;-56
2023/06/25 04:40:24;;;;;;;13.30;9.48;;;18.10;99.90;;;;;;5089781;28;20561;-56
2023/06/25 04:42:50;;;;;;;10.07;8.52;;;18.10;99.90;;;;;;5089903;28;20500;-56
2023/06/25 04:45:16;;;;;;;11.68;8.52;;;18.10;99.90;;;;;;5089692;28;20036;-56
2023/06/25 04:47:41;;;;;;;9.13;8.18;;;18.20;99.90;;;;;;5071385;28;20032;-56
2023/06/25 04:50:07;;;;;;;8.50;7.60;;;18.30;99.90;;;;;;5089631;28;20035;-56
2023/06/25 04:52:32;;;;;;;9.90;8.65;;;18.30;99.90;;;;;;5089602;28;20035;-56
2023/06/25 04:54:58;;;;;;;11.00;8.38;;;18.40;99.90;;;;;;5071510;28;20024;-56
2023/06/25 04:57:24;;;;;;;9.43;7.85;;;18.50;99.90;;;;;;5089306;28;20437;-56
2023/06/25 04:59:49;;;;;;;10.73;8.20;;;18.60;99.90;;;;;;5089657;28;20035;-56
2023/06/25 05:02:15;;;;;;;11.55;8.77;;;18.80;99.90;;;;;;5089497;28;20021;-56
2023/06/25 05:04:40;;;;;;;11.52;8.32;;;18.90;99.90;;;;;;5002796;28;20039;-57
2023/06/25 05:07:06;;;;;;;9.63;8.23;;;19.00;99.90;;;;;;4976486;28;20018;-56
2023/06/25 05:09:31;;;;;;;9.27;7.15;;;19.10;99.90;;;;;;4970620;28;20033;-56
2023/06/25 05:11:57;;;;;;;8.75;7.85;;;19.30;99.90;;;;;;4971359;28;20059;-56
2023/06/25 05:14:22;;;;;;;8.80;7.97;;;19.40;99.90;;;;;;4971477;28;20023;-56
2023/06/25 05:16:48;;;;;;;8.35;7.55;;;19.50;99.90;;;;;;4971452;28;20037;-56
2023/06/25 05:19:13;;;;;;;10.05;7.72;;;19.60;99.90;;;;;;4971418;28;20458;-56
2023/06/25 05:21:39;;;;;;;9.10;7.25;;;19.70;99.90;;;;;;4971257;28;20035;-56
2023/06/25 05:24:05;;;;;;;9.27;7.35;;;19.80;99.90;;;;;;4971313;28;20084;-56
2023/06/25 05:26:31;;;;;;;9.23;8.00;;;20.00;99.90;;;;;;4970865;28;20432;-56
2023/06/25 05:28:57;;;;;;;11.57;7.13;;;20.10;99.90;;;;;;4953949;28;20054;-56
2023/06/25 05:31:23;;;;;;;8.77;7.75;;;20.10;99.90;;;;;;4971461;28;20019;-56
2023/06/25 05:33:49;;;;;;;10.77;7.72;;;20.30;99.90;;;;;;4971184;28;20076;-56
2023/06/25 05:36:16;;;;;;;9.38;8.40;;;20.40;99.90;;;;;;4970638;28;20488;-56
2023/06/25 05:38:41;;;;;;;10.40;7.07;;;20.40;99.90;;;;;;4969662;28;20030;-56
2023/06/25 05:41:07;;;;;;;7.72;6.93;;;20.50;99.90;;;;;;4970894;28;20035;-56
2023/06/25 05:43:33;;;;;;;8.60;7.72;;;20.60;99.90;;;;;;4970797;28;20034;-56
2023/06/25 05:45:58;;;;;;;9.85;7.93;;;20.70;99.90;;;;;;4970634;28;20023;-56
2023/06/25 05:48:25;;;;;;;8.52;7.63;;;20.80;99.90;;;;;;4970835;28;20023;-56
2023/06/25 05:50:50;;;;;;;11.52;7.72;;;21.00;99.90;;;;;;4970847;28;20034;-56
2023/06/25 05:53:16;;;;;;;7.53;6.72;;;21.10;99.90;;;;;;4971384;28;20535;-56
2023/06/25 05:55:42;;;;;;;8.40;7.53;;;21.20;99.90;;;;;;4970313;28;20035;-56
2023/06/25 05:58:08;;;;;;;11.07;7.55;;;21.30;99.90;;;;;;4970547;28;20221;-56
2023/06/25 06:00:33;;;;;;;10.00;7.40;;;21.50;99.90;;;;;;4970668;28;20038;-56
2023/06/25 06:02:59;;;;;;;9.05;7.82;;;21.50;99.90;;;;;;4970604;28;20434;-56
2023/06/25 06:05:24;;;;;;;7.53;6.82;;;21.70;99.90;;;;;;4970988;28;20039;-57
2023/06/25 06:07:50;;;;;;;10.75;7.78;;;21.80;99.90;;;;;;4970491;28;20100;-56
2023/06/25 06:10:16;;;;;;;7.90;6.82;;;21.90;99.90;;;;;;4970516;28;20054;-56
2023/06/25 06:12:42;;;;;;;8.63;6.90;;;21.90;99.90;;;;;;4970308;28;20038;-57
2023/06/25 06:15:08;;;;;;;9.88;7.40;;;22.10;99.90;;;;;;4970754;28;20034;-56
2023/06/25 06:17:33;;;;;;;7.93;7.13;;;22.20;99.90;;;;;;4970150;28;20418;-56
2023/06/25 06:19:59;;;;;;;7.63;6.57;;;22.30;99.90;;;;;;4969898;28;20412;-57
2023/06/25 06:22:24;;;;;;;8.27;6.75;;;22.30;99.90;;;;;;4970501;28;20060;-57
2023/06/25 06:24:50;;;;;;;7.20;6.50;;;22.50;99.90;;;;;;4970286;28;20383;-56
2023/06/25 06:27:15;;;;;;;7.82;7.03;;;22.50;99.90;;;;;;4969718;28;20023;-57
2023/06/25 06:29:41;;;;;;;7.40;6.70;;;22.60;99.90;;;;;;4970162;28;20027;-56
2023/06/25 06:32:07;;;;;;;7.78;6.65;;;22.70;99.90;;;;;;4970091;28;20035;-57
2023/06/25 06:34:32;;;;;;;9.60;6.95;;;22.80;99.90;;;;;;4970059;28;20484;-56
2023/06/25 06:36:58;;;;;;;7.18;6.38;;;22.90;99.90;;;;;;4969704;28;20072;-56
2023/06/25 06:39:23;;;;;;;9.73;5.97;;;22.90;99.90;;;;;;4970020;28;20022;-56
2023/06/25 06:41:49;;;;;;;7.07;6.45;;;23.00;99.90;;;;;;4952526;28;20015;-56
2023/06/25 06:44:18;;;;;;;8.02;6.60;;;23.00;99.90;;;;;;4970023;28;20156;-56
2023/06/25 06:46:45;;;;;;;7.47;6.65;;;23.00;99.90;;;;;;4969699;28;20023;-57
2023/06/25 06:49:11;;;;;;;8.75;6.97;;;23.10;99.90;;;;;;4979094;28;20026;-56
2023/06/25 06:51:37;;;;;;;6.93;6.22;;;23.10;99.90;;;;;;4989179;28;20380;-55
2023/06/25 06:54:04;;;;;;;7.80;7.00;;;23.10;99.90;;;;;;4989204;28;20083;-56
2023/06/25 06:56:30;;;;;;;7.65;6.82;;;23.20;99.90;;;;;;4971224;28;20027;-55
2023/06/25 06:58:55;;;;;;;7.78;6.53;;;23.20;99.90;;;;;;4989095;28;20033;-55
2023/06/25 07:01:21;;;;;;;7.00;6.30;;;23.30;99.90;;;;;;4989380;28;20026;-55
2023/06/25 07:03:46;;;;;;;8.65;6.57;;;23.40;99.90;;;;;;4989371;28;20061;-56
2023/06/25 07:06:12;;;;;;;8.32;6.30;;;23.50;99.90;;;;;;4971293;28;20105;-56
2023/06/25 07:08:37;;;;;;;9.55;6.60;;;23.50;99.90;;;;;;4989723;28;20432;-56
2023/06/25 07:11:03;;;;;;;8.60;6.75;;;23.60;99.90;;;;;;4989023;28;20040;-55
2023/06/25 07:13:29;;;;;;;6.68;5.97;;;23.60;99.90;;;;;;4988837;28;20027;-55
2023/06/25 07:15:55;;;;;;;8.27;6.13;;;23.60;99.90;;;;;;4988518;28;20395;-55
2023/06/25 07:18:21;;;;;;;7.05;5.85;;;23.70;99.90;;;;;;4988767;28;20305;-56
2023/06/25 07:20:46;;;;;;;7.03;6.30;;;23.70;99.90;;;;;;4988854;28;20080;-56
2023/06/25 07:23:12;;;;;;;7.28;6.55;;;23.90;99.90;;;;;;4988612;28;20506;-56
2023/06/25 07:25:37;;;;;;;8.10;7.15;;;24.00;99.90;;;;;;4988476;28;20038;-55
2023/06/25 07:28:03;;;;;;;8.70;6.50;;;24.00;99.90;;;;;;4988506;28;20469;-55
2023/06/25 07:30:29;;;;;;;7.88;5.88;;;24.10;99.90;;;;;;4988573;28;20030;-55
2023/06/25 07:32:54;;;;;;;7.53;6.43;;;24.30;99.90;;;;;;4987219;28;20022;-55
2023/06/25 07:35:21;;;;;;;6.72;6.00;;;24.40;99.90;;;;;;4988415;28;20506;-56
2023/06/25 07:37:47;;;;;;;7.28;6.20;;;24.40;99.90;;;;;;4988085;28;20022;-55
2023/06/25 07:40:12;;;;;;;9.02;6.80;;;24.40;99.90;;;;;;4988475;28;20023;-55
2023/06/25 07:42:38;;;;;;;8.43;6.10;;;24.50;99.90;;;;;;4988669;28;20152;-55
2023/06/25 07:45:04;;;;;;;7.35;5.70;;;24.50;99.90;;;;;;4971011;28;20121;-55
2023/06/25 07:47:29;;;;;;;6.88;6.28;;;24.50;99.90;;;;;;4987915;28;20023;-56
2023/06/25 07:49:55;;;;;;;6.78;6.07;;;24.60;99.90;;;;;;4988350;28;20424;-56
2023/06/25 07:52:20;;;;;;;6.25;5.65;;;24.70;99.90;;;;;;4988077;28;20478;-55
2023/06/25 07:54:46;;;;;;;8.60;6.20;;;24.80;99.90;;;;;;4970898;28;20491;-56
2023/06/25 07:57:11;;;;;;;6.53;5.82;;;24.90;99.90;;;;;;4987742;28;20046;-55
2023/06/25 07:59:37;;;;;;;6.95;5.90;;;25.10;99.90;;;;;;4988123;28;20023;-55
2023/06/25 08:02:03;;;;;;;6.57;5.43;;;25.20;99.90;;;;;;5028802;28;20392;-55
2023/06/25 08:04:28;;;;;;;6.72;5.85;;;25.10;99.90;;;;;;5090766;28;20481;-55
2023/06/25 08:06:54;;;;;;;7.70;6.13;;;25.30;99.90;;;;;;5084099;28;20095;-56
2023/06/25 08:09:19;;;;;;;6.78;5.72;;;25.50;99.90;;;;;;4987912;28;20105;-55
2023/06/25 08:11:45;;;;;;;8.88;5.63;;;25.70;99.60;;;;;;4987938;28;20030;-55
2023/06/25 08:14:10;;;;;;;7.22;5.60;;;26.30;99.50;;;;;;4970436;28;20057;-56
2023/06/25 08:16:36;;;;;;;6.85;5.00;;;27.20;97.90;;;;;;4986963;28;20022;-56
2023/06/25 08:19:01;;;;;;;6.32;5.28;;;28.20;94.40;;;;;;4986972;28;20084;-56
2023/06/25 08:21:27;;;;;;;5.40;4.90;;;29.10;90.10;;;;;;4986789;28;20025;-57
2023/06/25 08:23:52;;;;;;;7.07;4.55;;;30.20;86.70;;;;;;4969330;28;20050;-57
2023/06/25 08:26:18;;;;;;;5.53;4.00;;;30.70;82.70;;;;;;4986403;28;20062;-56
2023/06/25 08:28:44;;;;;;;8.77;4.38;;;31.50;80.60;;;;;;4986986;28;20026;-56
2023/06/25 08:31:10;;;;;;;4.63;3.97;;;32.60;77.70;;;;;;4976630;28;20030;-56
2023/06/25 08:33:37;;;;;;;3.95;3.65;;;33.40;76.20;;;;;;4972552;28;20494;-57
2023/06/25 08:36:02;;;;;;;4.93;3.75;;;34.20;70.80;;;;;;4950150;28;20035;-56
2023/06/25 08:38:30;;;;;;;5.63;4.00;;;34.70;68.50;;;;;;4978216;28;20056;-56
2023/06/25 08:40:56;;;;;;;5.50;3.85;;;35.10;67.10;;;;;;4977732;28;20019;-56
2023/06/25 08:43:21;;;;;;;4.20;3.80;;;35.20;66.20;;;;;;4978898;28;20117;-56
2023/06/25 08:45:47;;;;;;;4.80;4.13;;;35.50;64.10;;;;;;4975598;28;20035;-58
2023/06/25 08:48:15;;;;;;;5.25;3.60;;;35.80;63.80;;;;;;4975905;28;20060;-56
2023/06/25 08:51:03;;;;;;;4.88;3.83;;;35.90;62.20;;;;;;4954038;28;20438;-58
2023/06/25 08:53:28;;;;;;;5.40;4.28;;;36.40;59.30;;;;;;4955266;28;20544;-56
2023/06/25 08:55:58;;;;;;;7.07;3.92;;;36.80;59.00;;;;;;4977257;28;20051;-58
2023/06/25 08:58:24;;;;;;;4.50;4.10;;;36.80;58.80;;;;;;4987282;28;20015;-58
2023/06/25 09:00:50;;;;;;;5.35;4.18;;;37.00;58.30;;;;;;4987309;28;20105;-58
2023/06/25 09:03:16;;;;;;;4.22;3.83;;;37.10;57.90;;;;;;4970090;28;20070;-58
2023/06/25 09:05:51;;;;;;;6.13;4.05;;;37.90;57.30;;;;;;4987142;28;20439;-57
2023/06/25 09:08:16;;;;;;;4.88;4.05;;;37.80;55.20;;;;;;4987213;28;20475;-57
2023/06/25 09:10:42;;;;;;;4.03;3.72;;;37.90;55.90;;;;;;4975759;28;20034;-57
2023/06/25 09:13:07;;;;;;;5.22;4.00;;;37.80;55.10;;;;;;4977469;28;20041;-57
2023/06/25 09:15:33;;;;;;;4.57;4.15;;;37.90;55.00;;;;;;4975973;28;20395;-57
2023/06/25 09:17:58;;;;;;;5.35;4.20;;;37.90;55.40;;;;;;4987122;28;20435;-57
2023/06/25 09:20:24;;;;;;;4.95;3.92;;;38.10;54.70;;;;;;4987144;28;20105;-57
2023/06/25 09:22:55;;;;;;;6.25;3.78;;;38.00;54.20;;;;;;4987357;28;20079;-58
2023/06/25 09:25:28;;;;;;;4.85;3.90;;;38.40;50.90;;;;;;4987088;28;20411;-56
2023/06/25 09:27:53;;;;;;;4.68;3.60;;;38.20;51.70;;;;;;4986792;28;20030;-57
2023/06/25 09:30:22;;;;;;;4.30;3.90;;;38.20;51.70;;;;;;4986979;28;20112;-56
2023/06/25 09:32:49;;;;;;;3.83;3.53;;;38.30;52.20;;;;;;4987149;28;20106;-57
2023/06/25 09:35:22;;;;;;;4.07;3.67;;;37.70;54.80;;;;;;4981490;28;20035;-57
2023/06/25 09:37:51;;;;;;;4.32;3.92;;;37.90;53.50;;;;;;4986593;28;20019;-56
2023/06/25 09:40:17;;;;;;;;;;;38.40;51.50;;;;;;4987393;28;20022;-57
2023/06/25 09:42:44;;;;;;;4.90;3.80;;;38.80;52.30;;;;;;4987364;28;19975;-57
2023/06/25 09:45:15;;;;;;;8.00;4.38;;;39.00;52.60;;;;;;4986920;28;20023;-57
2023/06/25 09:47:43;;;;;;;4.32;3.72;;;39.80;52.30;;;;;;4986508;28;20556;-57
2023/06/25 09:50:16;;;;;;;7.13;4.15;;;39.60;50.60;;;;;;4987019;28;20027;-57
2023/06/25 09:52:47;;;;;;;3.72;3.35;;;39.80;50.40;;;;;;4986593;28;20031;-57
2023/06/25 09:55:14;;;;;;;4.07;3.65;;;39.70;49.20;;;;;;4987368;28;20394;-56
2023/06/25 09:57:41;;;;;;;5.47;4.00;;;39.10;50.40;;;;;;4989868;28;20049;-56
2023/06/25 10:00:09;;;;;;;4.90;4.40;;;37.80;50.80;;;;;;4990098;28;20026;-56
2023/06/25 10:02:34;;;;;;;4.97;4.53;;;36.30;53.80;;;;;;4990035;28;20045;-56
2023/06/25 10:05:00;;;;;;;4.15;3.80;;;34.70;56.20;;;;;;5004863;28;20030;-56
2023/06/25 10:07:26;;;;;;;4.78;3.92;;;34.90;56.90;;;;;;4989452;28;20084;-56
2023/06/25 10:09:53;;;;;;;7.70;4.55;;;35.60;56.70;;;;;;4989836;28;20030;-56
2023/06/25 10:12:18;;;;;;;4.82;4.30;;;36.50;55.60;;;;;;4989765;28;20034;-56
2023/06/25 10:14:44;;;;;;;4.75;4.20;;;37.00;52.20;;;;;;5004684;28;20507;-56
2023/06/25 10:17:09;;;;;;;5.30;4.25;;;36.40;53.60;;;;;;4989145;28;20030;-57
2023/06/25 10:19:35;;;;;;;5.60;4.18;;;37.30;53.30;;;;;;4971205;28;20081;-56
2023/06/25 10:22:11;;;;;;;5.18;3.65;;;38.50;52.00;;;;;;4953124;28;20058;-56
2023/06/25 10:24:41;;;;;;;5.28;3.88;;;38.80;51.50;;;;;;4970740;28;20039;-57
2023/06/25 10:27:20;;;;;;;4.82;4.10;;;37.80;49.50;;;;;;4970016;28;20062;-57
2023/06/25 10:29:46;;;;;;;4.03;3.60;;;37.70;50.30;;;;;;5015751;28;20456;-57
2023/06/25 10:32:12;;;;;;;4.60;3.72;;;37.40;52.70;;;;;;5090081;28;20059;-56
2023/06/25 10:34:38;;;;;;;5.95;3.60;;;38.10;53.20;;;;;;5073101;28;20115;-56
2023/06/25 10:37:07;;;;;;;7.15;4.00;;;38.30;50.80;;;;;;5073026;28;20123;-57
2023/06/25 10:39:40;;;;;;;4.70;4.30;;;38.80;53.90;;;;;;5091793;28;20458;-57
2023/06/25 10:42:07;;;;;;;7.15;3.72;;;39.30;51.10;;;;;;5092276;28;20424;-57
2023/06/25 10:44:33;;;;;;;4.93;4.07;;;39.70;51.40;;;;;;5073436;28;20030;-57
2023/06/25 10:47:07;;;;;;;6.03;3.90;;;38.60;50.20;;;;;;5090953;28;20467;-57
2023/06/25 10:49:34;;;;;;;4.80;3.65;;;37.20;51.70;;;;;;5091995;28;20058;-56
2023/06/25 10:52:01;;;;;;;5.40;4.18;;;35.80;54.20;;;;;;5091584;28;20036;-56
2023/06/25 10:54:27;;;;;;;4.90;4.50;;;34.50;55.80;;;;;;5091892;28;20023;-56
2023/06/25 10:57:15;;;;;;;4.50;4.15;;;34.60;58.90;;;;;;5091169;28;20020;-56
2023/06/25 10:59:45;;;;;;;4.93;4.45;;;35.50;57.60;;;;;;5091591;28;20089;-55
2023/06/25 11:02:21;;;;;;;7.25;4.68;;;34.90;56.40;;;;;;5091432;28;20020;-55
2023/06/25 11:04:54;;;;;;;5.07;4.57;;;34.20;57.00;;;;;;5091421;28;20439;-55
2023/06/25 11:07:20;;;;;;;7.50;4.85;;;33.80;56.30;;;;;;5090901;28;20020;-55
2023/06/25 11:09:56;;;;;;;7.55;5.00;;;33.60;60.30;;;;;;5091292;28;20370;-55
2023/06/25 11:12:22;;;;;;;6.18;4.43;;;34.00;59.80;;;;;;5072916;28;20062;-55
2023/06/25 11:14:48;;;;;;;6.00;4.28;;;34.80;57.00;;;;;;5091681;28;20052;-56
2023/06/25 11:17:14;;;;;;;4.20;3.80;;;35.80;56.70;;;;;;5090823;28;20051;-55
2023/06/25 11:19:40;;;;;;;4.55;4.15;;;36.70;52.90;;;;;;5091186;28;20031;-55
2023/06/25 11:22:09;;;;;;;4.22;3.45;;;36.90;53.80;;;;;;5091083;28;20103;-57
2023/06/25 11:24:36;;;;;;;4.55;3.70;;;37.40;52.50;;;;;;5091229;28;20058;-57
2023/06/25 11:27:02;;;;;;;4.05;3.70;;;37.50;53.00;;;;;;5090576;28;20107;-56
2023/06/25 11:29:40;;;;;;;5.18;4.00;;;37.70;52.70;;;;;;5030848;28;20111;-55
2023/06/25 11:32:09;;;;;;;3.47;3.17;;;37.40;50.80;;;;;;5007749;28;20022;-57
2023/06/25 11:34:36;;;;;;;4.03;3.42;;;37.70;51.10;;;;;;5008141;28;20394;-57
2023/06/25 11:37:15;;;;;;;4.78;3.53;;;38.10;49.10;;;;;;5007687;28;20094;-56
2023/06/25 11:39:59;;;;;;;4.78;3.60;;;38.20;51.40;;;;;;5047025;28;20026;-57
2023/06/25 11:42:46;;;;;;;5.45;3.30;;;37.50;52.00;;;;;;5056571;28;20038;-57
2023/06/25 11:45:39;;;;;;;5.95;3.83;;;36.80;52.50;;;;;;5045855;28;20037;-55
2023/06/25 11:48:15;;;;;;;4.60;3.33;;;36.20;53.30;;;;;;4968345;28;20500;-57
2023/06/25 11:50:42;;;;;;;4.63;3.67;;;37.10;54.00;;;;;;4996847;28;20102;-55
2023/06/25 11:53:09;;;;;;;5.15;3.60;;;37.60;53.30;;;;;;4998994;28;20030;-55
2023/06/25 11:55:34;;;;;;;5.70;3.55;;;36.70;52.60;;;;;;5007779;28;20014;-55
2023/06/25 11:58:00;;;;;;;4.40;3.85;;;35.50;53.10;;;;;;5007624;28;20498;-55
2023/06/25 12:00:25;;;;;;;7.07;4.03;;;34.70;55.30;;;;;;5007616;28;20030;-56
2023/06/25 12:02:51;;;;;;;3.92;3.63;;;33.80;56.20;;;;;;4990135;28;20026;-55
2023/06/25 12:05:16;;;;;;;4.32;3.92;;;34.00;58.00;;;;;;4990935;28;20058;-55
2023/06/25 12:07:42;;;;;;;4.50;4.10;;;34.00;57.40;;;;;;4987676;28;20036;-56
2023/06/25 12:10:08;;;;;;;4.90;4.40;;;34.10;57.20;;;;;;4987598;28;20050;-56
2023/06/25 12:12:33;;;;;;;4.65;4.22;;;33.60;57.70;;;;;;4986834;28;20034;-56
2023/06/25 12:14:59;;;;;;;5.20;4.70;;;33.00;59.40;;;;;;4982595;28;20404;-55
2023/06/25 12:17:24;;;;;;;6.72;4.57;;;32.40;60.80;;;;;;4976132;28;20069;-55
2023/06/25 12:19:50;;;;;;;6.97;4.55;;;31.90;65.10;;;;;;4977960;28;20047;-55
2023/06/25 12:22:15;;;;;;;5.20;4.68;;;31.90;64.80;;;;;;4975864;28;20034;-56
2023/06/25 12:24:41;;;;;;;8.80;5.03;;;32.40;61.10;;;;;;4979646;28;20027;-56
2023/06/25 12:27:06;;;;;;;6.35;4.80;;;32.20;64.00;;;;;;4989080;28;20049;-56
2023/06/25 12:29:32;;;;;;;6.95;5.45;;;31.90;62.90;;;;;;4991734;28;20026;-56
2023/06/25 12:31:58;;;;;;;5.70;5.10;;;31.80;62.70;;;;;;4970245;28;20068;-56
2023/06/25 12:34:23;;;;;;;5.55;5.05;;;31.70;63.00;;;;;;4986967;28;20054;-56
2023/06/25 12:36:50;;;;;;;6.75;4.45;;;32.10;63.20;;;;;;4986733;28;20083;-56
2023/06/25 12:39:15;;;;;;;4.97;4.55;;;32.70;62.00;;;;;;4969759;28;20026;-56
2023/06/25 12:41:41;;;;;;;5.32;4.53;;;33.10;60.90;;;;;;4987663;28;20510;-55